Time;durP1;ratioP1;P1;durP2;ratioP2;P2;SDS_P1;SDS_P2;PMS_P1;PMS_P2;Temp;Humidity;BMP_temperature;BMP_pressure;BME280_temperature;BME280_humidity;BME280_pressure;Samples;Min_cycle;Max_cycle;Signal;HPM_P1;HPM_P2
2023/11/10 00:01:22;;;;;;;2.15;0.60;;;7.40;99.90;;;;;;5061007;28;20075;-77
2023/11/10 00:03:48;;;;;;;0.95;0.40;;;7.30;99.90;;;;;;5072979;28;20455;-76
2023/11/10 00:06:13;;;;;;;1.33;0.43;;;7.40;99.90;;;;;;5071864;28;20107;-76
2023/11/10 00:08:39;;;;;;;3.28;0.63;;;7.40;99.90;;;;;;5040856;28;20390;-77
2023/11/10 00:11:07;;;;;;;4.63;0.30;;;7.40;99.90;;;;;;5043565;28;20036;-74
2023/11/10 00:13:34;;;;;;;5.20;0.45;;;7.40;99.90;;;;;;5054044;28;20040;-75
2023/11/10 00:16:00;;;;;;;2.53;0.93;;;7.30;99.90;;;;;;5038406;28;20087;-76
2023/11/10 00:18:25;;;;;;;4.53;0.98;;;7.40;99.90;;;;;;5038117;28;20095;-77
2023/11/10 00:20:51;;;;;;;4.60;0.50;;;7.30;99.90;;;;;;5069701;28;20132;-76
2023/11/10 00:23:18;;;;;;;2.53;0.88;;;7.30;99.90;;;;;;5034994;28;20094;-77
2023/11/10 00:25:43;;;;;;;10.05;0.90;;;7.30;99.90;;;;;;5036522;28;20037;-76
2023/11/10 00:28:10;;;;;;;3.03;1.30;;;7.30;99.90;;;;;;5071549;28;20100;-76
2023/11/10 00:30:36;;;;;;;1.15;0.60;;;7.30;99.90;;;;;;5059736;28;20051;-76
2023/11/10 00:33:02;;;;;;;5.15;0.95;;;7.30;99.90;;;;;;5051041;28;20498;-78
2023/11/10 00:35:28;;;;;;;2.25;0.60;;;7.30;99.90;;;;;;5070919;28;20036;-75
2023/11/10 00:37:53;;;;;;;3.25;0.73;;;7.30;99.90;;;;;;5042254;28;20129;-76
2023/11/10 00:40:19;;;;;;;2.70;0.70;;;7.40;99.90;;;;;;5053236;28;20484;-74
2023/11/10 00:42:44;;;;;;;2.55;0.88;;;7.40;99.90;;;;;;5071836;28;20131;-75
2023/11/10 00:45:10;;;;;;;1.83;0.80;;;7.40;99.90;;;;;;5039853;28;20044;-76
2023/11/10 00:47:35;;;;;;;2.63;0.75;;;7.50;99.90;;;;;;5034515;28;20056;-75
2023/11/10 00:50:01;;;;;;;2.30;1.00;;;7.50;99.90;;;;;;5054376;28;20058;-75
2023/11/10 00:52:27;;;;;;;2.45;0.93;;;7.50;99.90;;;;;;5070449;28;20036;-75
2023/11/10 00:54:52;;;;;;;4.38;1.63;;;7.60;99.90;;;;;;5067321;28;20028;-76
2023/11/10 00:57:18;;;;;;;3.47;1.00;;;7.50;99.90;;;;;;5053295;28;20043;-76
2023/11/10 00:59:43;;;;;;;1.55;1.00;;;7.60;99.90;;;;;;5054327;28;20073;-75
2023/11/10 01:02:10;;;;;;;3.67;1.25;;;7.60;99.90;;;;;;5072244;28;20032;-75
2023/11/10 01:04:36;;;;;;;6.70;1.65;;;7.50;99.90;;;;;;5071034;28;20044;-75
2023/11/10 01:07:02;;;;;;;4.20;1.45;;;7.60;99.90;;;;;;5067617;28;20071;-75
2023/11/10 01:09:27;;;;;;;2.97;0.85;;;7.50;99.90;;;;;;5070822;28;20033;-75
2023/11/10 01:11:53;;;;;;;1.80;0.73;;;7.50;99.90;;;;;;5060151;28;20562;-78
2023/11/10 01:14:20;;;;;;;2.60;0.98;;;7.50;99.90;;;;;;5036003;28;20033;-76
2023/11/10 01:16:46;;;;;;;2.08;0.90;;;7.50;99.90;;;;;;5066255;28;20040;-77
2023/11/10 01:19:13;;;;;;;4.35;1.00;;;7.50;99.90;;;;;;5071537;28;20040;-77
2023/11/10 01:21:38;;;;;;;3.50;1.20;;;7.50;99.90;;;;;;5041820;28;20123;-77
2023/11/10 01:24:04;;;;;;;2.95;1.05;;;7.40;99.90;;;;;;5051027;28;20124;-77
2023/11/10 01:26:30;;;;;;;3.35;1.33;;;7.40;99.90;;;;;;5049836;28;20486;-77
2023/11/10 01:28:55;;;;;;;5.90;1.45;;;7.40;99.90;;;;;;5033004;28;20031;-76
2023/11/10 01:31:21;;;;;;;5.90;1.00;;;7.50;99.90;;;;;;5034700;28;20509;-78
2023/11/10 01:33:47;;;;;;;1.77;1.00;;;7.40;99.90;;;;;;5052581;28;20036;-76
2023/11/10 01:36:12;;;;;;;2.35;0.80;;;7.50;99.90;;;;;;5058094;28;20029;-76
2023/11/10 01:38:40;;;;;;;5.90;1.00;;;7.50;99.90;;;;;;5069640;28;20041;-77
2023/11/10 01:41:06;;;;;;;3.10;0.73;;;7.60;99.90;;;;;;5066296;28;20086;-77
2023/11/10 01:43:31;;;;;;;8.15;1.00;;;7.60;99.90;;;;;;5068532;28;20032;-76
2023/11/10 01:45:57;;;;;;;5.30;1.05;;;7.50;99.90;;;;;;5066895;28;20055;-76
2023/11/10 01:48:23;;;;;;;3.20;1.15;;;7.50;99.90;;;;;;5031495;28;20036;-77
2023/11/10 01:50:49;;;;;;;7.13;0.90;;;7.60;99.90;;;;;;5040716;28;20501;-77
2023/11/10 01:53:15;;;;;;;1.60;0.88;;;7.60;99.90;;;;;;5073246;28;20393;-77
2023/11/10 01:55:43;;;;;;;2.90;0.75;;;7.60;99.90;;;;;;5044976;28;20788;-77
2023/11/10 01:58:11;;;;;;;1.55;0.80;;;7.60;99.90;;;;;;5043491;28;20039;-76
2023/11/10 02:00:38;;;;;;;1.40;0.57;;;7.60;99.90;;;;;;5060929;28;20028;-76
2023/11/10 02:03:05;;;;;;;3.85;1.05;;;7.60;99.90;;;;;;5070660;28;20064;-75
2023/11/10 02:05:32;;;;;;;4.25;0.75;;;7.70;99.90;;;;;;5051269;28;20036;-76
2023/11/10 02:07:57;;;;;;;3.10;0.95;;;7.70;99.90;;;;;;5070399;28;20044;-76
2023/11/10 02:10:23;;;;;;;2.30;0.93;;;7.70;99.90;;;;;;5039578;28;20041;-76
2023/11/10 02:12:50;;;;;;;3.97;0.88;;;7.60;99.90;;;;;;5052443;28;20040;-79
2023/11/10 02:15:16;;;;;;;3.70;1.55;;;7.70;99.90;;;;;;5051484;28;20033;-77
2023/11/10 02:17:42;;;;;;;1.58;0.55;;;7.60;99.90;;;;;;5043395;28;20032;-76
2023/11/10 02:20:08;;;;;;;0.88;0.50;;;7.60;99.90;;;;;;5056394;28;20033;-76
2023/11/10 02:22:34;;;;;;;1.33;0.60;;;7.60;99.90;;;;;;5031810;28;20545;-76
2023/11/10 02:25:03;;;;;;;3.38;0.63;;;7.60;99.90;;;;;;5053659;28;20115;-77
2023/11/10 02:27:29;;;;;;;1.42;0.88;;;7.60;99.90;;;;;;5062495;28;20051;-77
2023/11/10 02:29:54;;;;;;;3.28;0.65;;;7.60;99.90;;;;;;5035694;28;20036;-77
2023/11/10 02:32:20;;;;;;;4.32;0.60;;;7.60;99.90;;;;;;5047170;28;20032;-78
2023/11/10 02:34:45;;;;;;;6.97;0.73;;;7.60;99.90;;;;;;5069499;28;20082;-75
2023/11/10 02:37:13;;;;;;;3.13;1.55;;;7.70;99.90;;;;;;5051201;28;20074;-77
2023/11/10 02:39:39;;;;;;;4.72;1.02;;;7.60;99.90;;;;;;5050684;28;20425;-75
2023/11/10 02:42:05;;;;;;;2.25;0.57;;;7.60;99.90;;;;;;5069643;28;20036;-76
2023/11/10 02:44:31;;;;;;;4.32;0.40;;;7.60;99.90;;;;;;5068408;28;20025;-77
2023/11/10 02:46:57;;;;;;;3.53;1.05;;;7.50;99.90;;;;;;5038225;28;20162;-75
2023/11/10 02:49:23;;;;;;;7.10;2.00;;;7.60;99.90;;;;;;5048107;28;20057;-75
2023/11/10 02:51:50;;;;;;;1.45;0.50;;;7.60;99.90;;;;;;5031463;28;20033;-75
2023/11/10 02:54:16;;;;;;;3.40;1.02;;;7.60;99.90;;;;;;5030727;28;20036;-77
2023/11/10 02:56:41;;;;;;;5.90;0.80;;;7.70;99.90;;;;;;5042464;28;21567;-77
2023/11/10 02:59:07;;;;;;;4.07;0.60;;;7.70;99.90;;;;;;5045929;28;20101;-75
2023/11/10 03:01:33;;;;;;;4.70;0.57;;;7.70;99.90;;;;;;5067564;28;20035;-76
2023/11/10 03:03:59;;;;;;;3.88;0.65;;;7.80;99.90;;;;;;5055718;28;20043;-74
2023/11/10 03:06:24;;;;;;;2.92;0.40;;;7.70;99.90;;;;;;5030354;28;20037;-77
2023/11/10 03:08:51;;;;;;;1.50;1.05;;;7.70;99.90;;;;;;5049108;28;20112;-77
2023/11/10 03:11:17;;;;;;;1.60;1.00;;;7.80;99.90;;;;;;5038483;28;20148;-76
2023/11/10 03:13:46;;;;;;;4.03;0.63;;;7.80;99.90;;;;;;5061922;28;20041;-76
2023/11/10 03:16:11;;;;;;;2.17;0.50;;;7.70;99.90;;;;;;5030643;28;20040;-76
2023/11/10 03:18:39;;;;;;;3.92;0.85;;;7.80;99.90;;;;;;5047730;28;20498;-76
2023/11/10 03:21:05;;;;;;;2.80;0.60;;;7.80;99.90;;;;;;5035966;28;20037;-74
2023/11/10 03:23:33;;;;;;;2.80;0.60;;;7.80;99.90;;;;;;5029781;28;20041;-76
2023/11/10 03:25:59;;;;;;;3.80;1.63;;;7.80;99.90;;;;;;5042959;28;20035;-75
2023/11/10 03:28:26;;;;;;;5.70;0.95;;;7.90;99.90;;;;;;5051817;28;20036;-75
2023/11/10 03:30:52;;;;;;;4.78;0.90;;;7.90;99.90;;;;;;5069303;28;20054;-77
2023/11/10 03:33:17;;;;;;;0.73;0.45;;;7.90;99.90;;;;;;5050172;28;20498;-75
2023/11/10 03:35:44;;;;;;;2.50;0.55;;;7.90;99.90;;;;;;5039596;28;20522;-74
2023/11/10 03:38:10;;;;;;;5.05;1.45;;;7.90;99.90;;;;;;5063534;28;20048;-77
2023/11/10 03:40:36;;;;;;;1.85;0.95;;;7.90;99.90;;;;;;5061277;28;20482;-77
2023/11/10 03:43:02;;;;;;;2.55;1.02;;;7.80;99.90;;;;;;5053013;28;20578;-76
2023/11/10 03:45:27;;;;;;;1.92;0.93;;;7.90;99.90;;;;;;5063853;28;20053;-76
2023/11/10 03:47:53;;;;;;;2.20;0.68;;;7.90;99.90;;;;;;5053171;28;20029;-75
2023/11/10 03:50:19;;;;;;;2.08;0.90;;;7.90;99.90;;;;;;5052843;28;20048;-75
2023/11/10 03:52:44;;;;;;;2.97;0.90;;;7.90;99.90;;;;;;5052332;28;20139;-77
2023/11/10 03:55:10;;;;;;;3.47;1.70;;;7.90;99.90;;;;;;5046681;28;20067;-75
2023/11/10 03:57:36;;;;;;;2.28;0.80;;;7.90;99.90;;;;;;5052278;28;20030;-75
2023/11/10 04:00:02;;;;;;;2.28;0.73;;;7.90;99.90;;;;;;5055124;28;20086;-76
2023/11/10 04:02:28;;;;;;;1.48;0.50;;;7.90;99.90;;;;;;5049046;28;20018;-74
2023/11/10 04:04:53;;;;;;;2.20;0.88;;;7.90;99.90;;;;;;5052821;28;20436;-75
2023/11/10 04:07:19;;;;;;;2.67;0.63;;;7.80;99.90;;;;;;5052783;28;20085;-76
2023/11/10 04:09:45;;;;;;;3.53;0.70;;;7.80;99.90;;;;;;5048684;28;20055;-75
2023/11/10 04:12:10;;;;;;;1.85;0.70;;;7.80;99.90;;;;;;5051211;28;20025;-75
2023/11/10 04:14:36;;;;;;;4.38;0.90;;;7.90;99.90;;;;;;5033098;28;20032;-77
2023/11/10 04:17:02;;;;;;;4.30;1.10;;;7.80;99.90;;;;;;5068112;28;20516;-77
2023/11/10 04:19:29;;;;;;;3.33;0.73;;;7.80;99.90;;;;;;5050544;28;20048;-76
2023/11/10 04:21:57;;;;;;;3.58;1.23;;;7.80;99.90;;;;;;5051678;28;20028;-76
2023/11/10 04:24:22;;;;;;;4.75;0.80;;;7.90;99.90;;;;;;5051071;28;20036;-75
2023/11/10 04:26:49;;;;;;;4.45;1.23;;;7.90;99.90;;;;;;5033522;28;20029;-77
2023/11/10 04:29:15;;;;;;;3.55;0.80;;;7.90;99.90;;;;;;5033776;28;20500;-77
2023/11/10 04:31:41;;;;;;;4.65;0.90;;;7.90;99.90;;;;;;5036902;28;20078;-76
2023/11/10 04:34:07;;;;;;;8.38;1.23;;;7.90;99.90;;;;;;5053825;28;20032;-78
2023/11/10 04:36:35;;;;;;;5.07;1.25;;;7.80;99.90;;;;;;5070466;28;20060;-74
2023/11/10 04:39:02;;;;;;;3.50;0.80;;;7.80;99.90;;;;;;5065391;28;20040;-77
2023/11/10 04:41:27;;;;;;;3.88;1.10;;;7.80;99.90;;;;;;5050076;28;20766;-75
2023/11/10 04:43:53;;;;;;;4.88;0.85;;;7.80;99.90;;;;;;5050744;28;20058;-78
2023/11/10 04:46:18;;;;;;;7.75;1.10;;;7.70;99.90;;;;;;5070304;28;20093;-77
2023/11/10 04:48:44;;;;;;;4.35;1.10;;;7.70;99.90;;;;;;5052050;28;20393;-76
2023/11/10 04:51:10;;;;;;;6.60;0.98;;;7.70;99.90;;;;;;5053579;28;20094;-75
2023/11/10 04:53:36;;;;;;;17.92;2.13;;;7.70;99.90;;;;;;5066176;28;20036;-76
2023/11/10 04:56:02;;;;;;;10.57;1.95;;;7.60;99.90;;;;;;5055911;28;20052;-77
2023/11/10 04:58:29;;;;;;;0.73;0.32;;;7.60;99.90;;;;;;5042576;28;20040;-78
2023/11/10 05:00:55;;;;;;;3.13;0.82;;;7.60;99.90;;;;;;5053501;28;20033;-75
2023/11/10 05:03:21;;;;;;;5.05;1.23;;;7.50;99.90;;;;;;5051226;28;20036;-76
2023/11/10 05:05:46;;;;;;;3.70;0.80;;;7.50;99.90;;;;;;5033044;28;20036;-78
2023/11/10 05:08:12;;;;;;;2.88;0.60;;;7.50;99.90;;;;;;5051364;28;20116;-75
2023/11/10 05:10:38;;;;;;;2.25;0.63;;;7.40;99.90;;;;;;5032415;28;20056;-76
2023/11/10 05:13:03;;;;;;;6.68;1.63;;;7.40;99.90;;;;;;5063156;28;20068;-75
2023/11/10 05:15:29;;;;;;;7.50;1.10;;;7.30;99.90;;;;;;5032150;28;20033;-76
2023/11/10 05:17:55;;;;;;;2.05;0.77;;;7.30;99.90;;;;;;5062899;28;20037;-76
2023/11/10 05:20:22;;;;;;;3.67;0.60;;;7.20;99.90;;;;;;5058966;28;20092;-76
2023/11/10 05:22:48;;;;;;;2.15;0.73;;;7.30;99.90;;;;;;5051921;28;20040;-75
2023/11/10 05:25:13;;;;;;;2.25;0.80;;;7.20;99.90;;;;;;5058994;28;20048;-77
2023/11/10 05:27:39;;;;;;;4.93;0.88;;;7.20;99.90;;;;;;5062196;28;20067;-75
2023/11/10 05:30:07;;;;;;;3.17;0.75;;;7.20;99.90;;;;;;5060245;28;20040;-75
2023/11/10 05:32:33;;;;;;;6.95;1.08;;;7.10;99.90;;;;;;5047230;28;20134;-74
2023/11/10 05:34:59;;;;;;;5.38;0.75;;;7.10;99.90;;;;;;5038553;28;20029;-75
2023/11/10 05:37:25;;;;;;;4.13;0.63;;;7.10;99.90;;;;;;5049836;28;20675;-75
2023/11/10 05:39:51;;;;;;;3.45;0.43;;;7.00;99.90;;;;;;5060704;28;20039;-75
2023/11/10 05:42:22;;;;;;;1.10;0.40;;;7.00;99.90;;;;;;5065853;28;20392;-74
2023/11/10 05:44:49;;;;;;;5.15;0.75;;;7.00;99.90;;;;;;5050740;28;20504;-75
2023/11/10 05:47:15;;;;;;;11.70;1.10;;;7.00;99.90;;;;;;5033572;28;20032;-75
2023/11/10 05:49:41;;;;;;;3.17;0.57;;;7.00;99.90;;;;;;5040710;28;20037;-74
2023/11/10 05:52:10;;;;;;;4.88;0.50;;;7.00;99.90;;;;;;5067330;28;20033;-76
2023/11/10 05:54:36;;;;;;;2.05;0.40;;;7.00;99.90;;;;;;5047446;28;20032;-74
2023/11/10 05:57:02;;;;;;;2.35;0.40;;;7.00;99.90;;;;;;5048574;28;20029;-74
2023/11/10 05:59:27;;;;;;;2.72;0.60;;;6.90;99.90;;;;;;5036974;28;20098;-75
2023/11/10 06:01:57;;;;;;;2.83;0.60;;;6.90;99.90;;;;;;5051867;28;20044;-77
2023/11/10 06:04:25;;;;;;;3.20;0.60;;;6.90;99.90;;;;;;5033562;28;20114;-76
2023/11/10 06:06:51;;;;;;;4.85;0.88;;;6.90;99.90;;;;;;5034347;28;20025;-75
2023/11/10 06:09:18;;;;;;;4.82;0.85;;;6.90;99.90;;;;;;5047737;28;20036;-74
2023/11/10 06:11:44;;;;;;;7.65;1.10;;;6.90;99.90;;;;;;5070466;28;20056;-76
2023/11/10 06:14:10;;;;;;;5.32;0.68;;;6.90;99.90;;;;;;5052566;28;20086;-75
2023/11/10 06:16:38;;;;;;;2.70;0.38;;;7.00;99.90;;;;;;5050892;28;20025;-76
2023/11/10 06:19:04;;;;;;;2.20;0.57;;;7.10;99.90;;;;;;5054699;28;20029;-75
2023/11/10 06:21:30;;;;;;;3.75;0.93;;;7.10;99.90;;;;;;5049327;28;20039;-76
2023/11/10 06:23:55;;;;;;;2.70;0.50;;;7.10;99.90;;;;;;5038564;28;20509;-73
2023/11/10 06:26:21;;;;;;;2.30;0.60;;;7.10;99.90;;;;;;5055383;28;20040;-74
2023/11/10 06:28:47;;;;;;;3.88;0.70;;;7.20;99.90;;;;;;5049911;28;20038;-74
2023/11/10 06:31:14;;;;;;;4.88;0.60;;;7.20;99.90;;;;;;5032187;28;20067;-74
2023/11/10 06:33:42;;;;;;;6.35;0.65;;;7.20;99.90;;;;;;5068575;28;20028;-76
2023/11/10 06:36:08;;;;;;;5.78;0.52;;;7.20;99.90;;;;;;5052077;28;20123;-76
2023/11/10 06:38:35;;;;;;;2.92;0.40;;;7.20;99.90;;;;;;5068914;28;20127;-74
2023/11/10 06:41:01;;;;;;;9.13;0.85;;;7.10;99.90;;;;;;5051873;28;20025;-74
2023/11/10 06:43:27;;;;;;;2.35;0.50;;;7.20;99.90;;;;;;5066365;28;20047;-75
2023/11/10 06:45:52;;;;;;;9.00;0.85;;;7.10;99.90;;;;;;5042003;28;20032;-77
2023/11/10 06:48:19;;;;;;;2.50;0.32;;;7.10;99.90;;;;;;5051240;28;20536;-76
2023/11/10 06:50:45;;;;;;;4.03;0.52;;;7.10;99.90;;;;;;5038265;28;20048;-74
2023/11/10 06:53:11;;;;;;;4.53;0.70;;;7.10;99.90;;;;;;5040440;28;20036;-74
2023/11/10 06:55:37;;;;;;;4.13;0.85;;;7.10;99.90;;;;;;5050459;28;20120;-74
2023/11/10 06:58:03;;;;;;;1.90;0.35;;;7.10;99.90;;;;;;5069884;28;20413;-74
2023/11/10 07:00:29;;;;;;;5.53;0.80;;;7.10;99.90;;;;;;5048005;28;20037;-76
2023/11/10 07:02:59;;;;;;;2.00;0.80;;;7.10;99.90;;;;;;5032138;28;20045;-74
2023/11/10 07:05:26;;;;;;;2.45;0.85;;;7.10;99.90;;;;;;5056820;28;20129;-74
2023/11/10 07:07:56;;;;;;;1.98;0.60;;;7.10;99.90;;;;;;5050093;28;20219;-75
2023/11/10 07:10:22;;;;;;;6.18;0.77;;;7.10;99.90;;;;;;5048769;28;20518;-74
2023/11/10 07:12:48;;;;;;;7.85;1.48;;;7.10;99.90;;;;;;5063381;28;20047;-75
2023/11/10 07:15:14;;;;;;;2.67;0.98;;;7.10;99.90;;;;;;5047206;28;20032;-75
2023/11/10 07:17:41;;;;;;;2.70;0.77;;;7.10;99.90;;;;;;5044924;28;20028;-74
2023/11/10 07:20:11;;;;;;;5.90;0.52;;;7.10;99.90;;;;;;5057085;28;20028;-75
2023/11/10 07:22:38;;;;;;;4.05;1.00;;;7.10;99.90;;;;;;5060206;28;20044;-75
2023/11/10 07:25:06;;;;;;;5.97;1.55;;;7.10;99.90;;;;;;5047834;28;20043;-74
2023/11/10 07:27:32;;;;;;;3.42;0.73;;;7.10;99.90;;;;;;5042741;28;20044;-75
2023/11/10 07:29:58;;;;;;;14.20;1.02;;;7.10;99.90;;;;;;5043001;28;20029;-77
2023/11/10 07:32:24;;;;;;;3.60;0.77;;;7.20;99.90;;;;;;5047059;28;20036;-74
2023/11/10 07:34:50;;;;;;;8.80;0.98;;;7.20;99.90;;;;;;5059461;28;20033;-75
2023/11/10 07:37:15;;;;;;;11.13;0.82;;;7.20;99.90;;;;;;5053163;28;20360;-76
2023/11/10 07:39:41;;;;;;;2.35;0.73;;;7.20;99.90;;;;;;5056404;28;20047;-76
2023/11/10 07:42:07;;;;;;;2.28;0.82;;;7.20;99.90;;;;;;5071340;28;20024;-76
2023/11/10 07:44:33;;;;;;;4.50;1.40;;;7.20;99.90;;;;;;5054496;28;20413;-76
2023/11/10 07:46:58;;;;;;;4.25;1.10;;;7.20;99.90;;;;;;5035015;28;20029;-78
2023/11/10 07:49:25;;;;;;;5.63;0.88;;;7.30;99.90;;;;;;5050974;28;20044;-75
2023/11/10 07:51:53;;;;;;;8.43;0.80;;;7.30;99.90;;;;;;5041124;28;20052;-75
2023/11/10 07:54:23;;;;;;;5.38;0.90;;;7.30;99.90;;;;;;5041374;28;20027;-74
2023/11/10 07:56:49;;;;;;;7.47;2.38;;;7.30;99.90;;;;;;5034281;28;20494;-77
2023/11/10 07:59:15;;;;;;;3.47;1.35;;;7.30;99.90;;;;;;5051482;28;20367;-74
2023/11/10 08:01:41;;;;;;;2.88;0.70;;;7.30;99.90;;;;;;5031638;28;20702;-75
2023/11/10 08:04:10;;;;;;;6.85;1.00;;;7.40;99.90;;;;;;5041315;28;20052;-75
2023/11/10 08:06:36;;;;;;;5.15;0.65;;;7.50;99.90;;;;;;5064690;28;20041;-75
2023/11/10 08:09:03;;;;;;;2.55;1.08;;;7.50;99.90;;;;;;5040873;28;20565;-76
2023/11/10 08:11:30;;;;;;;6.13;1.20;;;7.50;99.90;;;;;;5037034;28;20049;-75
2023/11/10 08:13:56;;;;;;;6.13;1.20;;;7.50;99.90;;;;;;5050955;28;20087;-75
2023/11/10 08:16:22;;;;;;;7.63;1.20;;;7.50;99.90;;;;;;5043665;28;20051;-76
2023/11/10 08:18:47;;;;;;;4.50;1.08;;;7.50;99.90;;;;;;5056570;28;20028;-76
2023/11/10 08:21:20;;;;;;;2.75;0.85;;;7.60;99.90;;;;;;5058270;28;20024;-76
2023/11/10 08:23:46;;;;;;;4.63;1.17;;;7.60;99.90;;;;;;5036686;28;20036;-75
2023/11/10 08:26:13;;;;;;;2.78;0.80;;;7.60;99.90;;;;;;5066980;28;20031;-75
2023/11/10 08:28:38;;;;;;;4.50;1.20;;;7.60;99.90;;;;;;5051804;28;20082;-74
2023/11/10 08:31:04;;;;;;;17.10;2.20;;;7.60;99.90;;;;;;5062877;28;20037;-77
2023/11/10 08:33:30;;;;;;;6.40;1.02;;;7.70;99.90;;;;;;5048549;28;20033;-76
2023/11/10 08:35:56;;;;;;;3.63;0.65;;;7.80;99.90;;;;;;5059238;28;20029;-76
2023/11/10 08:38:22;;;;;;;3.42;1.02;;;7.80;99.90;;;;;;5049864;28;20435;-76
2023/11/10 08:40:48;;;;;;;5.68;0.98;;;7.80;99.90;;;;;;5066201;28;20063;-76
2023/11/10 08:43:14;;;;;;;4.90;1.20;;;7.80;99.90;;;;;;5037649;28;20037;-75
2023/11/10 08:45:40;;;;;;;5.72;0.82;;;7.80;99.90;;;;;;5035088;28;20480;-75
2023/11/10 08:48:06;;;;;;;11.45;1.48;;;7.80;99.90;;;;;;5044249;28;20039;-78
2023/11/10 08:50:32;;;;;;;5.03;1.20;;;7.80;99.90;;;;;;5036610;28;20017;-77
2023/11/10 08:52:58;;;;;;;3.10;1.13;;;7.80;99.90;;;;;;5049044;28;20094;-76
2023/11/10 08:55:24;;;;;;;5.53;1.67;;;7.80;99.90;;;;;;5043004;28;20125;-76
2023/11/10 08:57:50;;;;;;;4.47;1.48;;;7.80;99.90;;;;;;5050549;28;20435;-76
2023/11/10 09:00:17;;;;;;;6.47;1.52;;;7.80;99.90;;;;;;5038961;28;20041;-76
2023/11/10 09:02:44;;;;;;;6.03;2.08;;;7.80;99.90;;;;;;5068944;28;20052;-76
2023/11/10 09:05:11;;;;;;;6.15;1.67;;;7.80;99.90;;;;;;5057006;28;20490;-75
2023/11/10 09:07:41;;;;;;;5.43;1.60;;;7.90;99.90;;;;;;5030561;28;20753;-77
2023/11/10 09:10:10;;;;;;;3.17;1.20;;;7.90;99.90;;;;;;5049622;28;20029;-75
2023/11/10 09:12:35;;;;;;;19.40;5.60;;;7.90;99.90;;;;;;5051353;28;20059;-75
2023/11/10 09:15:03;;;;;;;5.55;2.20;;;7.90;99.90;;;;;;5048702;28;20501;-75
2023/11/10 09:17:31;;;;;;;7.25;1.60;;;7.90;99.90;;;;;;5030326;28;20044;-75
2023/11/10 09:19:57;;;;;;;5.97;1.83;;;8.00;99.90;;;;;;5047359;28;20478;-75
2023/11/10 09:22:23;;;;;;;6.80;1.85;;;8.00;99.90;;;;;;5068207;28;20035;-75
2023/11/10 09:24:48;;;;;;;5.15;1.55;;;8.00;99.90;;;;;;5048699;28;20036;-76
2023/11/10 09:27:14;;;;;;;6.82;1.55;;;8.10;99.90;;;;;;5049628;28;20368;-75
2023/11/10 09:29:40;;;;;;;7.10;1.35;;;8.10;99.90;;;;;;5048438;28;20026;-74
2023/11/10 09:32:10;;;;;;;4.43;1.17;;;8.10;99.90;;;;;;5040967;28;20076;-74
2023/11/10 09:34:39;;;;;;;;;;;8.10;99.90;;;;;;5050062;28;20064;-75
2023/11/10 09:37:06;;;;;;;2.63;1.27;;;8.20;99.90;;;;;;5043792;28;19972;-77
2023/11/10 09:39:32;;;;;;;6.72;1.50;;;8.30;99.90;;;;;;5030928;28;20520;-74
2023/11/10 09:42:08;;;;;;;3.05;1.33;;;8.30;99.90;;;;;;5050937;28;20029;-75
2023/11/10 09:44:40;;;;;;;6.75;1.23;;;8.30;99.90;;;;;;5059089;28;20041;-74
2023/11/10 09:47:08;;;;;;;5.55;1.00;;;8.40;99.90;;;;;;5032151;28;20408;-75
2023/11/10 09:49:34;;;;;;;9.73;1.10;;;8.40;99.90;;;;;;5052955;28;20032;-74
2023/11/10 09:52:02;;;;;;;6.65;0.77;;;8.40;99.90;;;;;;5037804;28;20536;-75
2023/11/10 09:54:29;;;;;;;6.78;2.05;;;8.40;99.90;;;;;;5050517;28;20047;-74
2023/11/10 09:56:57;;;;;;;2.25;0.80;;;8.40;99.90;;;;;;5051385;28;20055;-75
2023/11/10 09:59:27;;;;;;;4.47;0.52;;;8.40;99.90;;;;;;5035076;28;20122;-76
2023/11/10 10:01:53;;;;;;;4.30;0.75;;;8.50;99.90;;;;;;5035576;28;20552;-74
2023/11/10 10:04:19;;;;;;;7.45;0.80;;;8.50;99.90;;;;;;5050287;28;20757;-75
2023/11/10 10:06:50;;;;;;;3.85;0.98;;;8.50;99.90;;;;;;5051175;28;20040;-74
2023/11/10 10:09:16;;;;;;;4.18;0.63;;;8.60;99.90;;;;;;5050667;28;20754;-75
2023/11/10 10:11:42;;;;;;;2.78;0.45;;;8.60;99.90;;;;;;5038490;28;20036;-75
2023/11/10 10:14:08;;;;;;;7.88;0.88;;;8.60;99.90;;;;;;5066500;28;20509;-76
2023/11/10 10:16:34;;;;;;;3.05;0.30;;;8.70;99.90;;;;;;5061156;28;20028;-75
2023/11/10 10:19:02;;;;;;;3.90;0.60;;;8.70;99.90;;;;;;5070524;28;20029;-74
2023/11/10 10:21:27;;;;;;;1.88;0.30;;;8.70;99.90;;;;;;5046792;28;20025;-74
2023/11/10 10:23:53;;;;;;;3.30;0.52;;;8.60;99.90;;;;;;5036271;28;20039;-75
2023/11/10 10:26:20;;;;;;;1.90;0.60;;;8.60;99.90;;;;;;5069651;28;20025;-75
2023/11/10 10:28:46;;;;;;;3.03;0.70;;;8.60;99.90;;;;;;5058829;28;20043;-75
2023/11/10 10:31:14;;;;;;;4.75;1.10;;;8.60;99.90;;;;;;5032501;28;20021;-75
2023/11/10 10:33:39;;;;;;;4.85;0.70;;;8.60;99.90;;;;;;5051436;28;20474;-77
2023/11/10 10:36:06;;;;;;;5.45;0.82;;;8.60;99.90;;;;;;5052263;28;20032;-75
2023/11/10 10:38:33;;;;;;;1.33;0.50;;;8.60;99.90;;;;;;5043406;28;20041;-75
2023/11/10 10:41:01;;;;;;;4.72;1.23;;;8.60;99.90;;;;;;5070285;28;20098;-75
2023/11/10 10:43:28;;;;;;;4.05;1.17;;;8.60;99.90;;;;;;5069383;28;20059;-75
2023/11/10 10:45:55;;;;;;;3.08;0.63;;;8.60;99.90;;;;;;5039791;28;20032;-77
2023/11/10 10:48:21;;;;;;;4.57;0.73;;;8.60;99.90;;;;;;5031377;28;20064;-74
2023/11/10 10:50:48;;;;;;;2.00;0.57;;;8.50;99.90;;;;;;5060353;28;20032;-75
2023/11/10 10:53:17;;;;;;;7.70;0.77;;;8.50;99.90;;;;;;5063305;28;20083;-75
2023/11/10 10:55:50;;;;;;;8.05;1.05;;;8.60;99.90;;;;;;5053344;28;20037;-75
2023/11/10 10:58:19;;;;;;;6.05;0.82;;;8.60;99.90;;;;;;5061818;28;20107;-75
2023/11/10 11:00:45;;;;;;;6.50;1.15;;;8.60;99.90;;;;;;5051747;28;20033;-76
2023/11/10 11:03:38;;;;;;;3.47;0.60;;;8.60;99.90;;;;;;5072360;28;20033;-75
2023/11/10 11:06:28;;;;;;;4.82;1.30;;;8.70;99.90;;;;;;5058524;28;20040;-74
2023/11/10 11:08:57;;;;;;;2.35;1.13;;;8.70;99.90;;;;;;5006162;28;20177;-75
2023/11/10 11:11:22;;;;;;;8.40;0.98;;;8.70;99.90;;;;;;5063700;28;20089;-75
2023/11/10 11:14:21;;;;;;;9.68;0.85;;;8.80;99.90;;;;;;5060884;28;20147;-76
2023/11/10 11:16:52;;;;;;;4.22;0.77;;;8.80;99.90;;;;;;5033389;28;20041;-75
2023/11/10 11:19:36;;;;;;;2.85;0.75;;;8.80;99.90;;;;;;5060890;28;20028;-74
2023/11/10 11:22:02;;;;;;;7.03;1.10;;;8.80;99.90;;;;;;5042323;28;20439;-75
2023/11/10 11:24:32;;;;;;;5.40;1.38;;;8.90;99.90;;;;;;5040794;28;20022;-75
2023/11/10 11:27:03;;;;;;;6.63;1.55;;;8.90;99.90;;;;;;5059481;28;20363;-74
2023/11/10 11:29:55;;;;;;;2.25;0.75;;;9.00;99.90;;;;;;5050802;28;20076;-76
2023/11/10 11:32:25;;;;;;;3.05;0.77;;;9.00;99.90;;;;;;5064791;28;20500;-74
2023/11/10 11:34:51;;;;;;;4.97;1.38;;;9.10;99.90;;;;;;5039462;28;20549;-75
2023/11/10 11:37:17;;;;;;;1.85;1.08;;;9.10;99.90;;;;;;5049197;28;20394;-76
2023/11/10 11:39:43;;;;;;;2.42;0.55;;;9.10;99.90;;;;;;5053126;28;20529;-75
2023/11/10 11:42:08;;;;;;;2.92;0.60;;;9.20;99.90;;;;;;5057764;28;20064;-74
2023/11/10 11:44:36;;;;;;;5.47;0.70;;;9.20;99.90;;;;;;5059217;28;20048;-74
2023/11/10 11:47:09;;;;;;;6.22;0.95;;;9.20;99.90;;;;;;5055782;28;20567;-76
2023/11/10 11:49:39;;;;;;;5.90;1.13;;;9.20;99.90;;;;;;5056407;28;20079;-75
2023/11/10 11:52:11;;;;;;;2.85;0.80;;;9.20;99.90;;;;;;5059232;28;20024;-75
2023/11/10 11:54:37;;;;;;;6.68;1.30;;;9.10;99.90;;;;;;5051248;28;20036;-77
2023/11/10 11:57:03;;;;;;;3.35;1.00;;;9.10;99.90;;;;;;5052859;28;20029;-75
2023/11/10 11:59:29;;;;;;;6.40;0.85;;;9.10;99.90;;;;;;5062007;28;20033;-74
2023/11/10 12:01:55;;;;;;;9.75;2.33;;;9.00;99.90;;;;;;5068869;28;20058;-74
2023/11/10 12:04:22;;;;;;;4.35;0.70;;;9.00;99.90;;;;;;5068049;28;20123;-76
2023/11/10 12:06:48;;;;;;;3.60;0.40;;;8.90;99.90;;;;;;5052394;28;20032;-73
2023/11/10 12:09:14;;;;;;;3.08;0.88;;;8.90;99.90;;;;;;5055740;28;20029;-75
2023/11/10 12:11:40;;;;;;;2.20;0.95;;;8.80;99.90;;;;;;5064718;28;20132;-74
2023/11/10 12:14:09;;;;;;;6.47;1.02;;;8.70;99.90;;;;;;5035159;28;20499;-75
2023/11/10 12:16:47;;;;;;;2.10;0.70;;;8.60;99.90;;;;;;5052441;28;20879;-78
2023/11/10 12:19:15;;;;;;;2.42;1.05;;;8.50;99.90;;;;;;5052710;28;20037;-75
2023/11/10 12:21:42;;;;;;;4.85;0.63;;;8.50;99.90;;;;;;5033910;28;20033;-76
2023/11/10 12:24:11;;;;;;;5.20;0.80;;;8.40;99.90;;;;;;5034978;28;20433;-74
2023/11/10 12:26:42;;;;;;;5.55;1.02;;;8.40;99.90;;;;;;5035482;28;20052;-76
2023/11/10 12:29:15;;;;;;;5.57;1.02;;;8.40;99.90;;;;;;5050206;28;20079;-74
2023/11/10 12:31:45;;;;;;;3.72;0.75;;;8.30;99.90;;;;;;5034738;28;20047;-73
2023/11/10 12:34:12;;;;;;;7.17;0.57;;;8.30;99.90;;;;;;5051640;28;20032;-74
2023/11/10 12:36:38;;;;;;;2.03;0.85;;;8.20;99.90;;;;;;5049103;28;20275;-74
2023/11/10 12:39:09;;;;;;;6.88;0.85;;;8.30;99.90;;;;;;5058056;28;20085;-74
2023/11/10 12:41:35;;;;;;;3.08;0.73;;;8.20;99.90;;;;;;5050164;28;20033;-74
2023/11/10 12:44:01;;;;;;;3.83;0.90;;;8.20;99.90;;;;;;5059710;28;20394;-75
2023/11/10 12:46:26;;;;;;;4.03;1.15;;;8.10;99.90;;;;;;5051355;28;20024;-76
2023/11/10 12:48:54;;;;;;;4.25;1.25;;;8.20;99.90;;;;;;5069717;28;20032;-75
2023/11/10 12:51:24;;;;;;;5.45;0.60;;;8.10;99.90;;;;;;5057422;28;20037;-73
2023/11/10 12:54:01;;;;;;;8.90;1.10;;;8.10;99.90;;;;;;5050098;28;20116;-74
2023/11/10 12:56:27;;;;;;;5.32;1.40;;;8.20;99.90;;;;;;5053260;28;20037;-74